Talkeetna, AK

2:18 AM AKDT on October 25, 2014 (GMT -0800)
Wasilla | Change Station
CLOSE
Current Station
Airport
Location: Wasilla,
Elevation: 351 ft
Nearby Weather Stations

Elev 351 ft 61.57 °N, 149.54 °W | Updated 2 minutes ago

Overcast
Overcast
28 °F
Feels Like 28 °F
N
0
Wind Variable Wind from North

Today
High -- | Low -- °F
--% Chance of Precip.
Yesterday
High -- | Low -- °F
Precip. -- in
9:12 AM 6:13 PM
New Moon, 2% visible
Pressure 29.89 in
Visibility 8.0 miles
Clouds Overcast 4800 ft
Dew Point 23 °F
Humidity 80%
Rainfall 0.00 in
Snow Depth Not available.
UV 0 out of 12
Pollen Not available.
Air Quality Not available.
Flu Activity Local Activity
METAR PAWS 251016Z AUTO 00000KT 8SM OVC048 M02/M05 A2989 RMK AO1

More Conditions Fewer Conditions

Pressure 29.89 in
Visibility 8.0 miles
Clouds Overcast 4800 ft
Dew Point 23 °F
Humidity 80%
Rainfall 0.00 in
Snow Depth Not available.
UV 0 out of 12
Pollen Not available.
Air Quality Not available.
Flu Activity Local Activity
METAR PAWS 251016Z AUTO 00000KT 8SM OVC048 M02/M05 A2989 RMK AO1

More Conditions Fewer Conditions

10-Day Weather Forecast

Almanac

Astronomy

Oct. 25, 2014 Rise Set
Actual Time 9:12 AM AKDT 6:13 PM AKDT
Civil Twilight 8:25 AM AKDT 7:00 PM AKDT
Nautical Twilight 7:33 AM AKDT 7:52 PM AKDT
Astronomical Twilight 6:41 AM AKDT 8:44 PM AKDT
Moon 11:29 AM AKDT 7:13 PM AKDT
Length of Visible Light 10h 35m
Length of Day
9h 00m
Tomorrow will be 5m 52s shorter.
New Moon, 2% of the Moon is Illuminated
Today
New Moon
Oct 30
First Quarter
Nov 6
Full
Nov 14
Last Quarter
Nov 22
New

Today's Extremes

State Highs State Lows

Community

WunderPhotos

Upload Photos

1,764,796 photos uploaded!

Nearby

Snow Depth

Station Depth Elevation
Susitna Valley High 0 in 375 ft
Point Mackenzie 1 in 200 ft
Indian Pass 7 in 2300 ft
Turnagain Pass 7 in 1880 ft
Moraine 0 in 2100 ft

Earthquake Activity

City Distance Mag. Time & Date
No recent earthquake activity has been reported nearby.
Minimum magnitude displayed is 2.5.

Coastal Water Temperatures

Place Temperature
No Stations Reporting

Nearby Weather Stations